createdAt,value
2022-11-24T00:00:10.028Z,0.00
2022-11-24T00:01:10.011Z,0.00
2022-11-24T00:02:10.131Z,0.00
2022-11-24T00:03:10.144Z,0.00
2022-11-24T00:04:09.971Z,0.00
2022-11-24T00:05:10.109Z,0.00
2022-11-24T00:06:09.981Z,0.00
2022-11-24T00:07:10.008Z,0.00
2022-11-24T00:08:09.918Z,0.00
2022-11-24T00:09:09.906Z,0.00
2022-11-24T00:10:09.895Z,0.00
2022-11-24T00:11:09.884Z,0.00
2022-11-24T00:12:09.866Z,0.00
2022-11-24T00:13:09.853Z,0.00
2022-11-24T00:14:09.842Z,0.00
2022-11-24T00:15:09.837Z,0.00
2022-11-24T00:16:10.014Z,0.00
2022-11-24T00:17:09.843Z,0.00
2022-11-24T00:18:09.792Z,0.00
2022-11-24T00:20:09.764Z,0.00
2022-11-24T00:21:09.756Z,0.00
2022-11-24T00:22:09.761Z,0.00
2022-11-24T00:23:09.728Z,0.00
2022-11-24T00:24:09.719Z,0.00
2022-11-24T00:25:09.723Z,0.00
2022-11-24T00:26:09.690Z,0.00
2022-11-24T00:27:09.674Z,0.00
2022-11-24T00:28:09.661Z,0.00
2022-11-24T00:29:09.653Z,0.00
2022-11-24T00:30:09.648Z,0.00
2022-11-24T00:31:13.907Z,0.00
2022-11-24T00:32:09.607Z,0.00
2022-11-24T00:33:09.596Z,0.00
2022-11-24T00:34:09.584Z,0.00
2022-11-24T00:35:09.574Z,0.00
2022-11-24T00:36:09.556Z,0.00
2022-11-24T00:37:09.546Z,0.00
2022-11-24T00:38:09.555Z,0.00
2022-11-24T00:39:09.523Z,0.00
2022-11-24T00:40:09.505Z,0.00
2022-11-24T00:41:09.498Z,0.00
2022-11-24T00:42:09.479Z,0.00
2022-11-24T00:43:09.473Z,0.00
2022-11-24T00:44:09.458Z,0.00
2022-11-24T00:45:13.823Z,0.00
2022-11-24T00:46:09.657Z,0.00
2022-11-24T00:47:09.657Z,0.00
2022-11-24T00:48:09.401Z,0.00
2022-11-24T00:49:09.391Z,0.00
2022-11-24T00:50:09.375Z,0.00
2022-11-24T00:51:09.367Z,0.00
2022-11-24T00:52:09.352Z,0.00
2022-11-24T00:53:09.343Z,0.00
2022-11-24T00:54:09.365Z,0.00
2022-11-24T00:55:09.360Z,0.00
2022-11-24T00:56:09.298Z,0.00
2022-11-24T00:57:09.291Z,0.00
2022-11-24T00:58:09.278Z,0.00
2022-11-24T00:59:09.310Z,0.00
2022-11-24T01:00:09.273Z,0.00
2022-11-24T01:01:09.344Z,0.00
2022-11-24T01:02:09.322Z,0.00
2022-11-24T01:03:09.216Z,0.00
2022-11-24T01:04:09.194Z,0.00
2022-11-24T01:05:09.188Z,0.00
2022-11-24T01:06:09.171Z,0.00
2022-11-24T01:07:09.234Z,0.00
2022-11-24T01:08:09.143Z,0.00
2022-11-24T01:09:09.131Z,0.00
2022-11-24T01:10:09.143Z,0.00
2022-11-24T01:11:09.107Z,0.00
2022-11-24T01:12:09.101Z,0.00
2022-11-24T01:13:09.081Z,0.00
2022-11-24T01:14:09.067Z,0.00
2022-11-24T01:15:09.054Z,0.00
2022-11-24T01:16:09.130Z,0.00
2022-11-24T01:17:09.030Z,0.00
2022-11-24T01:18:09.015Z,0.00
2022-11-24T01:19:09.006Z,0.00
2022-11-24T01:21:10.430Z,0.00
2022-11-24T01:22:08.967Z,0.00
2022-11-24T01:23:08.953Z,0.00
2022-11-24T01:24:08.941Z,0.00
2022-11-24T01:25:08.930Z,0.00
2022-11-24T01:26:08.946Z,0.00
2022-11-24T01:27:08.904Z,0.00
2022-11-24T01:28:08.890Z,0.00
2022-11-24T01:29:08.877Z,0.00
2022-11-24T01:30:08.864Z,0.00
2022-11-24T01:31:08.897Z,0.00
2022-11-24T01:32:08.840Z,0.00
2022-11-24T01:33:08.827Z,0.00
2022-11-24T01:34:08.813Z,0.00
2022-11-24T01:35:08.800Z,0.00
2022-11-24T01:36:08.795Z,0.00
2022-11-24T01:37:08.775Z,0.00
2022-11-24T01:38:08.761Z,0.00
2022-11-24T01:39:08.749Z,0.00
2022-11-24T01:40:08.733Z,0.00
2022-11-24T01:41:08.723Z,0.00
2022-11-24T01:42:08.734Z,0.00
2022-11-24T01:43:08.697Z,0.00
2022-11-24T01:44:08.683Z,0.00
2022-11-24T01:45:08.676Z,0.00
2022-11-24T01:46:08.712Z,0.00
2022-11-24T01:47:08.646Z,0.00
2022-11-24T01:48:08.633Z,0.00
2022-11-24T01:49:08.621Z,0.00
2022-11-24T01:50:08.609Z,0.00
2022-11-24T01:51:08.595Z,0.00
2022-11-24T01:52:08.580Z,0.00
2022-11-24T01:53:08.568Z,0.00
2022-11-24T01:54:08.555Z,0.00
2022-11-24T01:55:08.545Z,0.00
2022-11-24T01:56:08.528Z,0.00
2022-11-24T01:57:08.517Z,0.00
2022-11-24T01:58:08.527Z,0.00
2022-11-24T01:59:08.495Z,0.00
2022-11-24T02:00:08.476Z,0.00
2022-11-24T02:01:08.508Z,0.00
2022-11-24T02:02:08.545Z,0.00
2022-11-24T02:03:08.441Z,0.00
2022-11-24T02:04:08.427Z,0.00
2022-11-24T02:05:08.414Z,0.00
2022-11-24T02:06:08.400Z,0.00
2022-11-24T02:07:08.483Z,0.00
2022-11-24T02:08:08.373Z,0.00
2022-11-24T02:09:08.362Z,0.00
2022-11-24T02:10:08.348Z,0.00
2022-11-24T02:11:08.336Z,0.00
2022-11-24T02:12:08.321Z,0.00
2022-11-24T02:13:08.314Z,0.00
2022-11-24T02:14:08.322Z,0.00
2022-11-24T02:15:08.284Z,0.00
2022-11-24T02:16:08.319Z,0.00
2022-11-24T02:17:08.260Z,0.00
2022-11-24T02:18:08.244Z,0.00
2022-11-24T02:19:08.233Z,0.00
2022-11-24T02:20:08.219Z,0.00
2022-11-24T02:22:08.191Z,0.00
2022-11-24T02:23:08.180Z,0.00
2022-11-24T02:24:08.169Z,0.00
2022-11-24T02:25:08.154Z,0.00
2022-11-24T02:26:08.142Z,0.00
2022-11-24T02:27:08.128Z,0.00
2022-11-24T02:28:08.114Z,0.00
2022-11-24T02:29:08.103Z,0.00
2022-11-24T02:30:08.116Z,0.00
2022-11-24T02:31:08.169Z,0.00
2022-11-24T02:32:08.063Z,0.00
2022-11-24T02:33:08.050Z,0.00
2022-11-24T02:34:08.036Z,0.00
2022-11-24T02:35:08.031Z,0.00
2022-11-24T02:36:08.014Z,0.00
2022-11-24T02:37:07.999Z,0.00
2022-11-24T02:38:07.986Z,0.00
2022-11-24T02:39:07.974Z,0.00
2022-11-24T02:40:07.972Z,0.00
2022-11-24T02:41:07.948Z,0.00
2022-11-24T02:42:07.934Z,0.00
2022-11-24T02:43:07.936Z,0.00
2022-11-24T02:44:07.908Z,0.00
2022-11-24T02:45:07.897Z,0.00
2022-11-24T02:46:07.938Z,0.00
2022-11-24T02:47:07.871Z,0.00
2022-11-24T02:48:07.862Z,0.00
2022-11-24T02:49:07.847Z,0.00
2022-11-24T02:50:07.830Z,0.00
2022-11-24T02:51:07.819Z,0.00
2022-11-24T02:52:07.807Z,0.00
2022-11-24T02:53:07.793Z,0.00
2022-11-24T02:54:07.784Z,0.00
2022-11-24T02:55:07.767Z,0.00
2022-11-24T02:56:07.752Z,0.00
2022-11-24T02:57:07.744Z,0.00
2022-11-24T02:58:07.726Z,0.00
2022-11-24T02:59:07.715Z,0.00
2022-11-24T03:00:07.708Z,0.00
2022-11-24T03:01:07.744Z,0.00
2022-11-24T03:02:07.701Z,0.00
2022-11-24T03:03:07.750Z,0.00
2022-11-24T03:04:07.648Z,0.00
2022-11-24T03:05:07.640Z,0.00
2022-11-24T03:06:07.626Z,0.00
2022-11-24T03:07:07.655Z,0.00
2022-11-24T03:08:07.598Z,0.00
2022-11-24T03:09:07.585Z,0.00
2022-11-24T03:10:07.573Z,0.00
2022-11-24T03:11:07.560Z,0.00
2022-11-24T03:12:07.546Z,0.00
2022-11-24T03:13:07.536Z,0.00
2022-11-24T03:14:07.521Z,0.00
2022-11-24T03:15:07.512Z,0.00
2022-11-24T03:16:07.533Z,0.00
2022-11-24T03:17:07.483Z,0.00
2022-11-24T03:18:07.495Z,0.00
2022-11-24T03:19:07.457Z,0.00
2022-11-24T03:20:07.444Z,0.00
2022-11-24T03:21:07.431Z,0.00
2022-11-24T03:23:07.409Z,0.00
2022-11-24T03:24:07.389Z,0.00
2022-11-24T03:25:07.380Z,0.00
2022-11-24T03:26:07.368Z,0.00
2022-11-24T03:27:07.354Z,0.00
2022-11-24T03:28:07.340Z,0.00
2022-11-24T03:29:07.328Z,0.00
2022-11-24T03:30:07.313Z,0.00
2022-11-24T03:31:07.398Z,0.00
2022-11-24T03:32:07.287Z,0.00
2022-11-24T03:33:07.356Z,0.00
2022-11-24T03:34:07.288Z,0.00
2022-11-24T03:35:07.250Z,0.00
2022-11-24T03:36:07.235Z,0.00
2022-11-24T03:37:07.224Z,0.00
2022-11-24T03:38:07.209Z,0.00
2022-11-24T03:39:07.199Z,0.00
2022-11-24T03:40:07.185Z,0.00
2022-11-24T03:41:07.175Z,0.00
2022-11-24T03:42:07.160Z,0.00
2022-11-24T03:43:07.149Z,0.00
2022-11-24T03:44:07.132Z,0.00
2022-11-24T03:46:07.178Z,0.00
2022-11-24T03:47:07.097Z,0.00
2022-11-24T03:48:07.084Z,0.00
2022-11-24T03:49:07.068Z,0.00
2022-11-24T03:50:07.086Z,0.00
2022-11-24T03:51:07.042Z,0.00
2022-11-24T03:52:08.328Z,0.00
2022-11-24T03:53:07.017Z,0.00
2022-11-24T03:54:07.004Z,0.00
2022-11-24T03:55:06.991Z,0.00
2022-11-24T03:56:06.981Z,0.00
2022-11-24T03:57:06.967Z,0.00
2022-11-24T03:58:06.955Z,0.00
2022-11-24T03:59:06.942Z,0.00
2022-11-24T04:00:06.941Z,0.00
2022-11-24T04:01:06.916Z,0.00
2022-11-24T04:02:06.933Z,0.00
2022-11-24T04:03:07.015Z,0.00
2022-11-24T04:04:06.876Z,0.00
2022-11-24T04:05:06.863Z,0.00
2022-11-24T04:06:06.877Z,0.00
2022-11-24T04:07:06.914Z,0.00
2022-11-24T04:08:06.826Z,0.00
2022-11-24T04:09:06.813Z,0.00
2022-11-24T04:10:06.805Z,0.00
2022-11-24T04:11:06.786Z,0.00
2022-11-24T04:12:06.775Z,0.00
2022-11-24T04:13:06.761Z,0.00
2022-11-24T04:14:13.234Z,0.00
2022-11-24T04:15:06.736Z,0.00
2022-11-24T04:16:06.812Z,0.00
2022-11-24T04:17:06.711Z,0.00
2022-11-24T04:18:06.698Z,0.00
2022-11-24T04:19:06.686Z,0.00
2022-11-24T04:20:06.680Z,0.00
2022-11-24T04:21:06.659Z,0.00
2022-11-24T04:22:06.671Z,0.00
2022-11-24T04:24:06.624Z,0.00
2022-11-24T04:25:06.608Z,0.00
2022-11-24T04:26:06.600Z,0.00
2022-11-24T04:27:06.588Z,0.00
2022-11-24T04:28:06.573Z,0.00
2022-11-24T04:29:06.560Z,0.00
2022-11-24T04:30:06.552Z,0.00
2022-11-24T04:31:06.579Z,0.00
2022-11-24T04:32:06.524Z,0.00
2022-11-24T04:33:06.509Z,0.00
2022-11-24T04:34:06.501Z,0.00
2022-11-24T04:35:06.485Z,0.00
2022-11-24T04:36:06.474Z,0.00
2022-11-24T04:37:06.474Z,0.00
2022-11-24T04:38:06.476Z,0.00
2022-11-24T04:39:24.421Z,0.00
2022-11-24T04:40:08.422Z,0.00
2022-11-24T04:41:06.407Z,0.00
2022-11-24T04:42:06.408Z,0.00
2022-11-24T04:43:06.393Z,0.00
2022-11-24T04:44:06.372Z,0.00
2022-11-24T04:45:06.357Z,0.00
2022-11-24T04:46:06.434Z,0.00
2022-11-24T04:47:06.330Z,0.00
2022-11-24T04:48:06.319Z,0.00
2022-11-24T04:49:06.304Z,0.00
2022-11-24T04:50:06.294Z,0.00
2022-11-24T04:51:06.284Z,0.00
2022-11-24T04:52:06.267Z,0.00
2022-11-24T04:53:06.256Z,0.00
2022-11-24T04:54:06.268Z,0.00
2022-11-24T04:55:06.230Z,0.00
2022-11-24T04:56:06.225Z,0.00
2022-11-24T04:57:06.206Z,0.00
2022-11-24T04:58:06.194Z,0.00
2022-11-24T04:59:08.461Z,0.00
2022-11-24T05:00:06.171Z,0.00
2022-11-24T05:01:06.176Z,0.00
2022-11-24T05:02:06.203Z,0.00
2022-11-24T05:03:06.129Z,0.00
2022-11-24T05:04:06.177Z,0.00
2022-11-24T05:05:06.106Z,0.00
2022-11-24T05:06:06.091Z,0.00
2022-11-24T05:07:06.107Z,0.00
2022-11-24T05:08:06.070Z,0.00
2022-11-24T05:09:06.052Z,0.00
2022-11-24T05:10:06.114Z,0.00
2022-11-24T05:11:06.025Z,0.00
2022-11-24T05:12:06.016Z,0.00
2022-11-24T05:13:05.999Z,0.00
2022-11-24T05:14:05.994Z,0.00
2022-11-24T05:15:05.977Z,0.00
2022-11-24T05:16:06.025Z,0.00
2022-11-24T05:17:05.953Z,0.00
2022-11-24T05:18:05.941Z,0.00
2022-11-24T05:19:05.926Z,0.00
2022-11-24T05:20:05.918Z,0.00
2022-11-24T05:21:05.901Z,0.00
2022-11-24T05:22:05.892Z,0.00
2022-11-24T05:23:05.876Z,0.00
2022-11-24T05:25:05.854Z,0.00
2022-11-24T05:26:05.863Z,0.00
2022-11-24T05:27:05.826Z,0.00
2022-11-24T05:28:05.815Z,0.00
2022-11-24T05:29:05.801Z,0.00
2022-11-24T05:30:05.790Z,0.00
2022-11-24T05:31:05.849Z,0.00
2022-11-24T05:32:05.763Z,0.00
2022-11-24T05:33:05.748Z,0.00
2022-11-24T05:34:05.738Z,0.00
2022-11-24T05:35:05.725Z,0.00
2022-11-24T05:36:05.712Z,0.00
2022-11-24T05:37:05.700Z,0.00
2022-11-24T05:38:05.710Z,0.00
2022-11-24T05:39:05.672Z,0.00
2022-11-24T05:40:05.660Z,0.00
2022-11-24T05:41:05.647Z,0.00
2022-11-24T05:42:05.663Z,0.00
2022-11-24T05:43:05.621Z,0.00
2022-11-24T05:44:05.610Z,0.00
2022-11-24T05:45:05.597Z,0.00
2022-11-24T05:46:05.588Z,0.00
2022-11-24T05:47:05.674Z,0.00
2022-11-24T05:48:05.563Z,0.00
2022-11-24T05:49:05.546Z,0.00
2022-11-24T05:50:05.535Z,0.00
2022-11-24T05:51:09.286Z,0.00
2022-11-24T05:52:05.510Z,0.00
2022-11-24T05:53:05.496Z,0.00
2022-11-24T05:54:05.486Z,0.00
2022-11-24T05:55:05.472Z,0.00
2022-11-24T05:56:05.459Z,0.00
2022-11-24T05:57:05.444Z,0.00
2022-11-24T05:58:05.464Z,0.00
2022-11-24T05:59:09.662Z,0.00
2022-11-24T06:00:05.411Z,0.00
2022-11-24T06:01:05.395Z,0.00
2022-11-24T06:02:05.522Z,0.00
2022-11-24T06:03:05.530Z,0.00
2022-11-24T06:04:05.359Z,0.00
2022-11-24T06:05:05.353Z,0.00
2022-11-24T06:06:05.334Z,0.00
2022-11-24T06:07:05.320Z,0.00
2022-11-24T06:08:05.314Z,0.00
2022-11-24T06:09:05.297Z,0.00
2022-11-24T06:10:05.283Z,0.00
2022-11-24T06:11:05.270Z,0.00
2022-11-24T06:12:05.263Z,0.00
2022-11-24T06:13:05.303Z,0.00
2022-11-24T06:14:09.775Z,0.00
2022-11-24T06:15:07.221Z,0.00
2022-11-24T06:16:05.260Z,0.00
2022-11-24T06:17:05.195Z,0.00
2022-11-24T06:18:05.184Z,0.00
2022-11-24T06:19:05.172Z,0.00
2022-11-24T06:20:05.160Z,0.00
2022-11-24T06:21:12.057Z,0.00
2022-11-24T06:22:07.134Z,0.00
2022-11-24T06:23:05.120Z,0.00
2022-11-24T06:24:05.109Z,0.00
2022-11-24T06:26:05.084Z,0.00
2022-11-24T06:27:05.073Z,4.00
2022-11-24T06:28:05.061Z,4.00
2022-11-24T06:29:05.046Z,0.00
2022-11-24T06:30:05.064Z,0.00
2022-11-24T06:31:05.021Z,4.00
2022-11-24T06:32:05.038Z,4.00
2022-11-24T06:33:04.996Z,0.00
2022-11-24T06:34:04.985Z,4.00
2022-11-24T06:35:04.970Z,4.00
2022-11-24T06:36:04.960Z,4.00
2022-11-24T06:37:04.945Z,8.00
2022-11-24T06:38:04.935Z,4.00
2022-11-24T06:40:04.909Z,8.00
2022-11-24T06:41:04.896Z,12.00
2022-11-24T06:42:04.885Z,12.00
2022-11-24T06:43:04.868Z,12.00
2022-11-24T06:44:04.858Z,16.00
2022-11-24T06:45:08.764Z,16.00
2022-11-24T06:46:04.949Z,24.00
2022-11-24T06:47:04.817Z,20.00
2022-11-24T06:48:04.807Z,28.00
2022-11-24T06:49:04.794Z,32.00
2022-11-24T06:50:04.782Z,36.00
2022-11-24T06:51:04.771Z,40.00
2022-11-24T06:52:04.756Z,40.00
2022-11-24T06:53:04.743Z,44.00
2022-11-24T06:54:04.733Z,48.00
2022-11-24T06:55:04.718Z,48.00
2022-11-24T06:56:04.707Z,44.00
2022-11-24T06:57:04.694Z,40.00
2022-11-24T06:58:04.682Z,48.00
2022-11-24T06:59:04.668Z,52.00
2022-11-24T07:00:04.656Z,52.00
2022-11-24T07:01:04.677Z,64.00
2022-11-24T07:02:04.658Z,88.00
2022-11-24T07:03:04.703Z,100.00
2022-11-24T07:04:04.607Z,100.00
2022-11-24T07:05:04.591Z,92.00
2022-11-24T07:06:04.581Z,100.00
2022-11-24T07:07:04.566Z,120.00
2022-11-24T07:08:04.555Z,128.00
2022-11-24T07:09:04.543Z,128.00
2022-11-24T07:10:04.532Z,124.00
2022-11-24T07:11:04.517Z,120.00
2022-11-24T07:12:04.508Z,124.00
2022-11-24T07:13:04.495Z,128.00
2022-11-24T07:14:04.482Z,152.00
2022-11-24T07:15:04.466Z,180.00
2022-11-24T07:16:04.480Z,208.00
2022-11-24T07:17:04.440Z,228.00
2022-11-24T07:18:04.458Z,240.00
2022-11-24T07:19:04.415Z,232.00
2022-11-24T07:20:04.404Z,212.00
2022-11-24T07:21:04.391Z,200.00
2022-11-24T07:22:04.380Z,204.00
2022-11-24T07:23:04.364Z,208.00
2022-11-24T07:24:04.352Z,216.00
2022-11-24T07:25:04.339Z,236.00
2022-11-24T07:27:04.312Z,296.00
2022-11-24T07:28:04.303Z,324.00
2022-11-24T07:29:04.288Z,336.00
2022-11-24T07:30:04.282Z,352.00
2022-11-24T07:31:04.262Z,368.00
2022-11-24T07:32:05.825Z,340.00
2022-11-24T07:33:04.236Z,300.00
2022-11-24T07:34:04.248Z,276.00
2022-11-24T07:35:04.217Z,268.00
2022-11-24T07:36:04.201Z,284.00
2022-11-24T07:37:04.197Z,304.00
2022-11-24T07:38:04.173Z,324.00
2022-11-24T07:39:04.159Z,352.00
2022-11-24T07:40:04.147Z,348.00
2022-11-24T07:41:04.133Z,336.00
2022-11-24T07:42:04.121Z,316.00
2022-11-24T07:43:04.106Z,316.00
2022-11-24T07:44:04.095Z,340.00
2022-11-24T07:45:04.079Z,364.00
2022-11-24T07:46:04.118Z,400.00
2022-11-24T07:47:04.054Z,456.00
2022-11-24T07:48:04.044Z,520.00
2022-11-24T07:49:04.029Z,552.00
2022-11-24T07:50:04.047Z,548.00
2022-11-24T07:51:04.003Z,568.00
2022-11-24T07:52:03.991Z,592.00
2022-11-24T07:53:03.985Z,632.00
2022-11-24T07:54:03.965Z,652.00
2022-11-24T07:55:03.951Z,692.00
2022-11-24T07:56:03.940Z,724.00
2022-11-24T07:57:03.927Z,780.00
2022-11-24T07:58:03.911Z,872.00
2022-11-24T07:59:03.897Z,952.00
2022-11-24T08:00:03.885Z,1068.00
2022-11-24T08:01:03.868Z,1200.00
2022-11-24T08:02:03.887Z,1264.00
2022-11-24T08:03:03.844Z,1372.00
2022-11-24T08:04:03.867Z,1604.00
2022-11-24T08:05:03.816Z,1872.00
2022-11-24T08:07:05.791Z,2248.00
2022-11-24T08:08:03.775Z,2580.00
2022-11-24T08:09:03.765Z,2976.00
2022-11-24T08:10:03.773Z,3572.00
2022-11-24T08:11:03.739Z,4272.00
2022-11-24T08:12:03.724Z,5208.00
2022-11-24T08:13:03.710Z,6188.00
2022-11-24T08:14:03.696Z,11316.00
2022-11-24T08:15:09.504Z,40256.00
2022-11-24T08:16:03.670Z,22304.00
2022-11-24T08:17:03.788Z,21696.00
2022-11-24T08:18:03.643Z,47744.00
2022-11-24T08:19:03.633Z,50208.00
2022-11-24T08:20:03.618Z,52224.00
2022-11-24T08:21:03.605Z,47104.00
2022-11-24T08:22:03.615Z,52064.00
2022-11-24T08:23:03.580Z,55648.00
2022-11-24T08:24:03.566Z,54080.00
2022-11-24T08:25:03.555Z,53920.00
2022-11-24T08:26:03.540Z,53856.00
2022-11-24T08:28:03.532Z,53632.00
2022-11-24T08:29:03.508Z,46112.00
2022-11-24T08:30:03.487Z,39648.00
2022-11-24T08:31:03.477Z,32000.00
2022-11-24T08:32:03.526Z,5728.00
2022-11-24T08:33:03.450Z,3928.00
2022-11-24T08:34:03.435Z,2844.00
2022-11-24T08:35:18.407Z,1864.00
2022-11-24T08:36:05.413Z,1480.00
2022-11-24T08:37:03.403Z,1240.00
2022-11-24T08:38:04.895Z,1136.00
2022-11-24T08:39:03.373Z,1164.00
2022-11-24T08:40:03.361Z,1396.00
2022-11-24T08:41:03.347Z,1780.00
2022-11-24T08:42:03.331Z,2204.00
2022-11-24T08:43:03.320Z,2384.00
2022-11-24T08:44:03.306Z,2380.00
2022-11-24T08:45:19.303Z,2440.00
2022-11-24T08:46:03.345Z,2572.00
2022-11-24T08:47:03.272Z,2924.00
2022-11-24T08:48:03.264Z,2616.00
2022-11-24T08:49:03.247Z,2324.00
2022-11-24T08:50:03.226Z,2072.00
2022-11-24T08:51:03.217Z,1784.00
2022-11-24T08:52:03.203Z,1760.00
2022-11-24T08:53:03.194Z,1888.00
2022-11-24T08:54:03.203Z,2024.00
2022-11-24T08:55:03.165Z,2200.00
2022-11-24T08:56:03.153Z,2324.00
2022-11-24T08:57:03.140Z,2464.00
2022-11-24T08:58:03.126Z,2636.00
2022-11-24T08:59:03.200Z,2636.00
2022-11-24T09:00:03.099Z,2568.00
2022-11-24T09:01:03.132Z,2692.00
2022-11-24T09:02:03.195Z,3176.00
2022-11-24T09:03:03.069Z,3864.00
2022-11-24T09:04:03.095Z,4940.00
2022-11-24T09:05:03.035Z,5108.00
2022-11-24T09:06:03.033Z,4992.00
2022-11-24T09:07:03.012Z,4936.00
2022-11-24T09:08:02.997Z,5096.00
2022-11-24T09:09:02.987Z,5296.00
2022-11-24T09:10:02.992Z,5492.00
2022-11-24T09:11:02.960Z,5500.00
2022-11-24T09:12:02.943Z,5692.00
2022-11-24T09:13:02.935Z,5396.00
2022-11-24T09:14:02.921Z,4872.00
2022-11-24T09:15:02.910Z,4520.00
2022-11-24T09:16:02.899Z,3952.00
2022-11-24T09:17:02.947Z,3236.00
2022-11-24T09:18:02.867Z,2692.00
2022-11-24T09:19:02.856Z,2452.00
2022-11-24T09:20:02.842Z,2552.00
2022-11-24T09:21:02.831Z,2668.00
2022-11-24T09:22:02.815Z,3156.00
2022-11-24T09:23:02.809Z,3444.00
2022-11-24T09:24:02.787Z,3520.00
2022-11-24T09:25:02.783Z,3588.00
2022-11-24T09:26:02.787Z,3872.00
2022-11-24T09:27:02.751Z,4280.00
2022-11-24T09:29:02.727Z,4920.00
2022-11-24T09:30:02.710Z,5024.00
2022-11-24T09:31:02.787Z,5384.00
2022-11-24T09:32:06.751Z,6144.00
2022-11-24T09:33:02.672Z,7520.00
2022-11-24T09:34:02.660Z,9244.00
2022-11-24T09:35:02.649Z,10012.00
2022-11-24T09:36:02.632Z,10396.00
2022-11-24T09:37:02.619Z,11232.00
2022-11-24T09:38:02.608Z,12484.00
2022-11-24T09:39:02.595Z,14900.00
2022-11-24T09:40:02.580Z,13924.00
2022-11-24T09:41:02.577Z,12664.00
2022-11-24T09:42:02.576Z,12328.00
2022-11-24T09:43:02.543Z,11952.00
2022-11-24T09:44:02.528Z,11892.00
2022-11-24T09:45:02.519Z,12304.00
2022-11-24T09:46:06.485Z,16960.00
2022-11-24T09:47:02.530Z,38528.00
2022-11-24T09:48:02.475Z,14720.00
2022-11-24T09:49:02.466Z,17952.00
2022-11-24T09:50:02.450Z,19360.00
2022-11-24T09:51:02.441Z,20288.00
2022-11-24T09:52:02.425Z,16704.00
2022-11-24T09:53:02.413Z,17216.00
2022-11-24T09:54:02.400Z,16608.00
2022-11-24T09:55:02.400Z,16608.00
2022-11-24T09:56:02.373Z,43808.00
2022-11-24T09:57:02.363Z,32672.00
2022-11-24T09:58:02.377Z,32704.00
2022-11-24T09:59:02.338Z,23200.00
2022-11-24T10:00:02.321Z,19840.00
2022-11-24T10:01:02.370Z,27168.00
2022-11-24T10:02:02.507Z,50720.00
2022-11-24T10:03:02.284Z,37920.00
2022-11-24T10:04:06.377Z,41760.00
2022-11-24T10:05:02.334Z,53824.00
2022-11-24T10:06:02.245Z,30272.00
2022-11-24T10:07:02.241Z,90016.00
2022-11-24T10:08:02.240Z,81664.00
2022-11-24T10:09:02.209Z,79296.00
2022-11-24T10:10:02.192Z,87584.00
2022-11-24T10:11:02.182Z,84480.00
2022-11-24T10:12:02.171Z,86976.00
2022-11-24T10:13:02.157Z,86432.00
2022-11-24T10:14:02.166Z,86720.00
2022-11-24T10:16:02.189Z,20800.00
2022-11-24T10:17:02.120Z,77632.00
2022-11-24T10:18:02.093Z,27712.00
2022-11-24T10:19:02.082Z,83040.00
2022-11-24T10:20:02.066Z,59360.00
2022-11-24T10:21:02.055Z,56320.00
2022-11-24T10:22:02.041Z,50848.00
2022-11-24T10:23:02.033Z,80800.00
2022-11-24T10:24:02.017Z,82016.00
2022-11-24T10:25:02.007Z,82592.00
2022-11-24T10:26:01.991Z,79584.00
2022-11-24T10:27:01.990Z,84768.00
2022-11-24T10:28:01.977Z,82080.00
2022-11-24T10:30:01.973Z,77408.00
2022-11-24T10:31:02.009Z,78400.00
2022-11-24T10:32:01.918Z,61728.00
2022-11-24T10:33:01.906Z,88192.00
2022-11-24T10:35:01.883Z,90016.00
2022-11-24T10:36:01.869Z,86656.00
2022-11-24T10:37:01.859Z,83168.00
2022-11-24T10:38:01.843Z,79008.00
2022-11-24T10:39:01.832Z,79488.00
2022-11-24T10:40:01.819Z,74624.00
2022-11-24T10:41:01.808Z,71232.00
2022-11-24T10:42:01.794Z,77600.00
2022-11-24T10:43:01.783Z,88544.00
2022-11-24T10:44:01.771Z,93664.00
2022-11-24T10:45:01.758Z,58368.00
2022-11-24T10:46:01.867Z,75040.00
2022-11-24T10:47:01.733Z,79008.00
2022-11-24T10:48:01.720Z,87936.00
2022-11-24T10:49:01.713Z,78624.00
2022-11-24T10:50:01.701Z,37024.00
2022-11-24T10:51:01.687Z,74144.00
2022-11-24T10:52:01.684Z,15972.00
2022-11-24T10:53:01.659Z,15600.00
2022-11-24T10:54:01.644Z,12680.00
2022-11-24T10:55:01.634Z,13492.00
2022-11-24T10:56:01.630Z,68640.00
2022-11-24T10:57:01.609Z,75008.00
2022-11-24T10:58:01.596Z,15412.00
2022-11-24T10:59:01.583Z,7844.00
2022-11-24T11:00:01.570Z,7472.00
2022-11-24T11:01:01.656Z,12844.00
2022-11-24T11:02:01.676Z,10220.00
2022-11-24T11:03:01.589Z,12308.00
2022-11-24T11:04:01.556Z,6224.00
2022-11-24T11:05:01.505Z,5692.00
2022-11-24T11:06:01.491Z,5936.00
2022-11-24T11:07:01.482Z,6376.00
2022-11-24T11:08:05.457Z,6116.00
2022-11-24T11:09:01.455Z,5936.00
2022-11-24T11:10:01.440Z,6072.00
2022-11-24T11:11:01.429Z,6224.00
2022-11-24T11:12:10.023Z,6288.00
2022-11-24T11:13:03.413Z,5956.00
2022-11-24T11:14:04.332Z,5592.00
2022-11-24T11:15:01.377Z,5064.00
2022-11-24T11:16:01.419Z,4404.00
2022-11-24T11:17:01.350Z,3792.00
2022-11-24T11:18:01.541Z,3300.00
2022-11-24T11:19:01.324Z,2912.00
2022-11-24T11:20:02.612Z,2784.00
2022-11-24T11:21:01.298Z,2856.00
2022-11-24T11:22:01.284Z,2852.00
2022-11-24T11:23:01.273Z,2776.00
2022-11-24T11:24:01.262Z,3056.00
2022-11-24T11:25:01.248Z,3692.00
2022-11-24T11:26:01.244Z,3868.00
2022-11-24T11:27:01.219Z,3600.00
2022-11-24T11:28:07.185Z,3412.00
2022-11-24T11:31:19.271Z,3788.00
2022-11-24T11:34:03.314Z,3708.00
2022-11-24T11:35:01.120Z,3328.00
2022-11-24T11:36:01.109Z,3008.00
2022-11-24T11:37:01.090Z,2808.00
2022-11-24T11:38:01.075Z,2828.00
2022-11-24T11:39:01.068Z,3096.00
2022-11-24T11:40:01.050Z,3572.00
2022-11-24T11:41:01.039Z,4120.00
2022-11-24T11:42:01.025Z,4412.00
2022-11-24T11:43:02.738Z,4244.00
2022-11-24T11:44:01.001Z,3868.00
2022-11-24T11:45:00.986Z,3512.00
2022-11-24T11:46:01.185Z,3164.00
2022-11-24T11:47:01.012Z,3016.00
2022-11-24T11:48:00.947Z,3224.00
2022-11-24T11:49:00.935Z,3676.00
2022-11-24T11:50:00.948Z,4308.00
2022-11-24T11:51:22.262Z,5052.00
2022-11-24T11:52:02.894Z,5864.00
2022-11-24T11:53:00.883Z,6352.00
2022-11-24T11:54:00.924Z,6548.00
2022-11-24T11:55:00.858Z,6812.00
2022-11-24T11:56:00.842Z,7624.00
2022-11-24T11:57:00.832Z,9840.00
2022-11-24T11:58:00.817Z,54656.00
2022-11-24T11:59:00.824Z,87104.00
2022-11-24T12:00:00.791Z,89152.00
2022-11-24T12:01:00.785Z,54464.00
2022-11-24T12:02:00.766Z,32064.00
2022-11-24T12:03:00.929Z,17184.00
2022-11-24T12:04:00.964Z,13812.00
2022-11-24T12:05:00.727Z,13440.00
2022-11-24T12:06:00.742Z,12852.00
2022-11-24T12:07:00.705Z,12180.00
2022-11-24T12:08:06.416Z,12908.00
2022-11-24T12:09:19.097Z,16864.00
2022-11-24T12:10:02.661Z,33184.00
2022-11-24T12:11:00.651Z,23232.00
2022-11-24T12:12:00.634Z,17888.00
2022-11-24T12:13:00.625Z,16736.00
2022-11-24T12:14:00.610Z,15904.00
2022-11-24T12:15:03.457Z,13684.00
2022-11-24T12:16:00.669Z,13000.00
2022-11-24T12:17:00.573Z,13400.00
2022-11-24T12:18:00.557Z,56512.00
2022-11-24T12:19:00.547Z,20384.00
2022-11-24T12:20:00.533Z,17952.00
2022-11-24T12:21:00.519Z,73984.00
2022-11-24T12:22:00.532Z,78048.00
2022-11-24T12:23:00.494Z,77216.00
2022-11-24T12:24:00.484Z,75648.00
2022-11-24T12:25:00.591Z,23360.00
2022-11-24T12:26:00.455Z,10700.00
2022-11-24T12:28:00.430Z,7824.00
2022-11-24T12:29:00.423Z,9308.00
2022-11-24T12:30:00.406Z,64032.00
2022-11-24T12:32:00.378Z,69920.00
2022-11-24T12:33:00.394Z,71392.00
2022-11-24T12:34:01.485Z,69760.00
2022-11-24T12:35:00.343Z,61664.00
2022-11-24T12:36:00.328Z,66368.00
2022-11-24T12:37:00.323Z,67168.00
2022-11-24T12:38:00.326Z,68160.00
2022-11-24T12:39:00.288Z,9436.00
2022-11-24T12:40:00.278Z,9068.00
2022-11-24T12:41:33.809Z,50816.00
2022-11-24T12:42:02.255Z,63264.00
2022-11-24T12:43:00.243Z,65824.00
2022-11-24T12:44:00.227Z,67424.00
2022-11-24T12:45:00.230Z,66624.00
2022-11-24T12:46:00.226Z,23488.00
2022-11-24T12:47:00.366Z,14396.00
2022-11-24T12:48:00.174Z,44832.00
2022-11-24T12:49:00.162Z,60672.00
2022-11-24T12:50:00.182Z,60832.00
2022-11-24T12:51:00.135Z,62944.00
2022-11-24T12:52:00.130Z,64000.00
2022-11-24T12:53:00.111Z,61312.00
2022-11-24T12:54:00.142Z,21088.00
2022-11-24T12:55:00.089Z,57120.00
2022-11-24T12:56:00.088Z,9284.00
2022-11-24T12:57:00.072Z,14156.00
2022-11-24T12:58:00.051Z,58464.00
2022-11-24T12:59:00.036Z,62528.00
2022-11-24T13:00:00.028Z,63680.00
2022-11-24T13:01:00.010Z,45312.00